sensor_id;sensor_type;location;lat;lon;timestamp;pressure;altitude;pressure_sealevel;temperature;humidity
49393;BME280;35268;42.642;23.308;2022-07-23T00:00:44;94211.47;;;22.34;41.37
49393;BME280;35268;42.642;23.308;2022-07-23T00:03:09;94216.06;;;22.27;41.02
49393;BME280;35268;42.642;23.308;2022-07-23T00:05:35;94214.91;;;22.24;39.48
49393;BME280;35268;42.642;23.308;2022-07-23T00:08:01;94217.63;;;22.24;40.26
49393;BME280;35268;42.642;23.308;2022-07-23T00:10:26;94221.09;;;22.24;40.83
49393;BME280;35268;42.642;23.308;2022-07-23T00:12:52;94216.78;;;22.20;40.98
49393;BME280;35268;42.642;23.308;2022-07-23T00:15:18;94222.22;;;22.20;40.62
49393;BME280;35268;42.642;23.308;2022-07-23T00:17:43;94221.81;;;22.18;40.22
49393;BME280;35268;42.642;23.308;2022-07-23T00:20:09;94233.84;;;22.17;40.25
49393;BME280;35268;42.642;23.308;2022-07-23T00:22:35;94228.81;;;22.19;40.25
49393;BME280;35268;42.642;23.308;2022-07-23T00:25:00;94227.22;;;22.14;41.45
49393;BME280;35268;42.642;23.308;2022-07-23T00:27:26;94231.84;;;22.10;40.28
49393;BME280;35268;42.642;23.308;2022-07-23T00:29:51;94241.91;;;22.06;40.36
49393;BME280;35268;42.642;23.308;2022-07-23T00:32:16;94243.41;;;22.00;41.11
49393;BME280;35268;42.642;23.308;2022-07-23T00:34:42;94243.31;;;21.89;41.10
49393;BME280;35268;42.642;23.308;2022-07-23T00:37:07;94241.34;;;21.82;41.52
49393;BME280;35268;42.642;23.308;2022-07-23T00:39:33;94244.78;;;21.79;41.48
49393;BME280;35268;42.642;23.308;2022-07-23T00:41:58;94230.41;;;21.75;42.06
49393;BME280;35268;42.642;23.308;2022-07-23T00:44:26;94228.91;;;21.78;42.65
49393;BME280;35268;42.642;23.308;2022-07-23T00:47:00;94232.34;;;21.75;43.32
49393;BME280;35268;42.642;23.308;2022-07-23T00:49:28;94228.06;;;21.70;43.99
49393;BME280;35268;42.642;23.308;2022-07-23T00:51:54;94228.81;;;21.67;43.75
49393;BME280;35268;42.642;23.308;2022-07-23T00:54:22;94232.59;;;21.59;43.56
49393;BME280;35268;42.642;23.308;2022-07-23T00:56:48;94232.94;;;21.50;43.83
49393;BME280;35268;42.642;23.308;2022-07-23T00:59:14;94226.31;;;21.48;44.19
49393;BME280;35268;42.642;23.308;2022-07-23T01:01:40;94227.41;;;21.43;44.39
49393;BME280;35268;42.642;23.308;2022-07-23T01:04:06;94228.16;;;21.40;43.94
49393;BME280;35268;42.642;23.308;2022-07-23T01:06:36;94225.00;;;21.34;44.22
49393;BME280;35268;42.642;23.308;2022-07-23T01:09:04;94233.91;;;21.35;44.66
49393;BME280;35268;42.642;23.308;2022-07-23T01:11:34;94224.59;;;21.32;45.08
49393;BME280;35268;42.642;23.308;2022-07-23T01:14:08;94228.41;;;21.28;45.21
49393;BME280;35268;42.642;23.308;2022-07-23T01:16:33;94219.84;;;21.22;45.45
49393;BME280;35268;42.642;23.308;2022-07-23T01:18:59;94220.56;;;21.15;46.53
49393;BME280;35268;42.642;23.308;2022-07-23T01:21:24;94222.03;;;21.09;45.85
49393;BME280;35268;42.642;23.308;2022-07-23T01:23:50;94215.75;;;21.01;46.21
49393;BME280;35268;42.642;23.308;2022-07-23T01:26:15;94220.72;;;20.96;46.48
49393;BME280;35268;42.642;23.308;2022-07-23T01:28:42;94221.84;;;20.91;46.59
49393;BME280;35268;42.642;23.308;2022-07-23T01:31:08;94213.28;;;20.89;44.33
49393;BME280;35268;42.642;23.308;2022-07-23T01:33:33;94216.72;;;20.82;45.98
49393;BME280;35268;42.642;23.308;2022-07-23T01:35:59;94222.50;;;20.81;44.55
49393;BME280;35268;42.642;23.308;2022-07-23T01:38:24;94217.03;;;20.77;44.88
49393;BME280;35268;42.642;23.308;2022-07-23T01:40:50;94206.47;;;20.69;45.43
49393;BME280;35268;42.642;23.308;2022-07-23T01:43:15;94218.44;;;20.64;45.31
49393;BME280;35268;42.642;23.308;2022-07-23T01:45:40;94214.47;;;20.58;45.41
49393;BME280;35268;42.642;23.308;2022-07-23T01:48:07;94217.53;;;20.56;45.46
49393;BME280;35268;42.642;23.308;2022-07-23T01:50:32;94212.09;;;20.56;45.42
49393;BME280;35268;42.642;23.308;2022-07-23T01:52:58;94220.22;;;20.56;44.93
49393;BME280;35268;42.642;23.308;2022-07-23T01:55:23;94212.06;;;20.53;44.78
49393;BME280;35268;42.642;23.308;2022-07-23T01:57:48;94217.88;;;20.55;44.58
49393;BME280;35268;42.642;23.308;2022-07-23T02:00:14;94219.06;;;20.57;43.86
49393;BME280;35268;42.642;23.308;2022-07-23T02:02:40;94206.34;;;20.58;43.51
49393;BME280;35268;42.642;23.308;2022-07-23T02:05:05;94210.53;;;20.55;43.82
49393;BME280;35268;42.642;23.308;2022-07-23T02:07:31;94208.69;;;20.59;44.16
49393;BME280;35268;42.642;23.308;2022-07-23T02:09:56;94208.31;;;20.61;43.75
49393;BME280;35268;42.642;23.308;2022-07-23T02:12:22;94210.25;;;20.60;43.93
49393;BME280;35268;42.642;23.308;2022-07-23T02:14:47;94212.59;;;20.62;43.68
49393;BME280;35268;42.642;23.308;2022-07-23T02:17:13;94214.91;;;20.63;44.28
49393;BME280;35268;42.642;23.308;2022-07-23T02:19:38;94225.75;;;20.63;45.17
49393;BME280;35268;42.642;23.308;2022-07-23T02:22:04;94218.84;;;20.66;45.81
49393;BME280;35268;42.642;23.308;2022-07-23T02:24:29;94214.19;;;20.67;46.49
49393;BME280;35268;42.642;23.308;2022-07-23T02:26:55;94213.00;;;20.64;46.55
49393;BME280;35268;42.642;23.308;2022-07-23T02:29:20;94223.03;;;20.63;46.75
49393;BME280;35268;42.642;23.308;2022-07-23T02:31:45;94228.03;;;20.61;46.79
49393;BME280;35268;42.642;23.308;2022-07-23T02:34:11;94226.50;;;20.60;47.19
49393;BME280;35268;42.642;23.308;2022-07-23T02:36:37;94215.16;;;20.55;47.01
49393;BME280;35268;42.642;23.308;2022-07-23T02:39:03;94220.50;;;20.48;47.21
49393;BME280;35268;42.642;23.308;2022-07-23T02:41:29;94216.56;;;20.41;47.18
49393;BME280;35268;42.642;23.308;2022-07-23T02:43:54;94234.63;;;20.34;47.24
49393;BME280;35268;42.642;23.308;2022-07-23T02:46:20;94232.63;;;20.31;46.92
49393;BME280;35268;42.642;23.308;2022-07-23T02:48:45;94218.63;;;20.25;47.53
49393;BME280;35268;42.642;23.308;2022-07-23T02:51:10;94228.63;;;20.21;46.98
49393;BME280;35268;42.642;23.308;2022-07-23T02:53:36;94226.25;;;20.16;46.87
49393;BME280;35268;42.642;23.308;2022-07-23T02:56:02;94231.59;;;20.12;47.05
49393;BME280;35268;42.642;23.308;2022-07-23T02:58:28;94237.75;;;20.09;47.66
49393;BME280;35268;42.642;23.308;2022-07-23T03:00:53;94232.34;;;20.09;47.72
49393;BME280;35268;42.642;23.308;2022-07-23T03:03:19;94236.94;;;20.05;47.80
49393;BME280;35268;42.642;23.308;2022-07-23T03:05:44;94243.84;;;20.02;48.02
49393;BME280;35268;42.642;23.308;2022-07-23T03:08:09;94256.16;;;20.00;48.39
49393;BME280;35268;42.642;23.308;2022-07-23T03:10:35;94249.97;;;19.99;48.61
49393;BME280;35268;42.642;23.308;2022-07-23T03:13:00;94248.38;;;19.95;48.87
49393;BME280;35268;42.642;23.308;2022-07-23T03:15:26;94254.56;;;19.95;48.57
49393;BME280;35268;42.642;23.308;2022-07-23T03:17:51;94254.13;;;19.93;48.81
49393;BME280;35268;42.642;23.308;2022-07-23T03:20:17;94251.38;;;19.90;49.57
49393;BME280;35268;42.642;23.308;2022-07-23T03:22:42;94259.06;;;19.88;49.59
49393;BME280;35268;42.642;23.308;2022-07-23T03:25:08;94257.81;;;19.81;49.87
49393;BME280;35268;42.642;23.308;2022-07-23T03:27:34;94252.03;;;19.83;50.41
49393;BME280;35268;42.642;23.308;2022-07-23T03:30:00;94257.81;;;19.81;50.25
49393;BME280;35268;42.642;23.308;2022-07-23T03:32:26;94257.81;;;19.81;48.62
49393;BME280;35268;42.642;23.308;2022-07-23T03:34:52;94256.56;;;19.75;48.58
49393;BME280;35268;42.642;23.308;2022-07-23T03:37:18;94256.19;;;19.77;49.29
49393;BME280;35268;42.642;23.308;2022-07-23T03:39:44;94262.81;;;19.79;48.55
49393;BME280;35268;42.642;23.308;2022-07-23T03:42:10;94257.81;;;19.81;48.05
49393;BME280;35268;42.642;23.308;2022-07-23T03:44:35;94264.41;;;19.84;48.27
49393;BME280;35268;42.642;23.308;2022-07-23T03:47:05;94272.16;;;19.86;49.05
49393;BME280;35268;42.642;23.308;2022-07-23T03:49:31;94269.78;;;19.80;50.01
49393;BME280;35268;42.642;23.308;2022-07-23T03:51:56;94264.31;;;19.77;50.38
49393;BME280;35268;42.642;23.308;2022-07-23T03:54:22;94275.13;;;19.77;50.20
49393;BME280;35268;42.642;23.308;2022-07-23T03:56:47;94271.22;;;19.74;50.64
49393;BME280;35268;42.642;23.308;2022-07-23T03:59:13;94268.56;;;19.78;50.70
49393;BME280;35268;42.642;23.308;2022-07-23T04:01:39;94268.22;;;19.79;50.79
49393;BME280;35268;42.642;23.308;2022-07-23T04:04:04;94274.03;;;19.81;50.91
49393;BME280;35268;42.642;23.308;2022-07-23T04:06:30;94264.84;;;19.86;51.12
49393;BME280;35268;42.642;23.308;2022-07-23T04:08:55;94269.53;;;19.89;51.04
49393;BME280;35268;42.642;23.308;2022-07-23T04:11:21;94268.03;;;19.92;51.17
49393;BME280;35268;42.642;23.308;2022-07-23T04:13:46;94268.50;;;19.97;51.21
49393;BME280;35268;42.642;23.308;2022-07-23T04:16:12;94267.81;;;20.04;51.38
49393;BME280;35268;42.642;23.308;2022-07-23T04:18:37;94272.63;;;20.14;51.65
49393;BME280;35268;42.642;23.308;2022-07-23T04:21:03;94274.97;;;20.16;51.35
49393;BME280;35268;42.642;23.308;2022-07-23T04:23:28;94275.38;;;20.18;51.87
49393;BME280;35268;42.642;23.308;2022-07-23T04:25:54;94276.63;;;20.24;51.42
49393;BME280;35268;42.642;23.308;2022-07-23T04:28:19;94273.16;;;20.23;52.38
49393;BME280;35268;42.642;23.308;2022-07-23T04:30:45;94290.53;;;20.22;52.31
49393;BME280;35268;42.642;23.308;2022-07-23T04:33:10;94293.66;;;20.24;51.99
49393;BME280;35268;42.642;23.308;2022-07-23T04:35:36;94289.81;;;20.26;52.04
49393;BME280;35268;42.642;23.308;2022-07-23T04:38:02;94284.34;;;20.22;53.03
49393;BME280;35268;42.642;23.308;2022-07-23T04:40:28;94277.41;;;20.24;52.54
49393;BME280;35268;42.642;23.308;2022-07-23T04:42:54;94284.06;;;20.31;53.28
49393;BME280;35268;42.642;23.308;2022-07-23T04:45:20;94276.47;;;20.40;53.07
49393;BME280;35268;42.642;23.308;2022-07-23T04:47:45;94278.19;;;20.52;53.07
49393;BME280;35268;42.642;23.308;2022-07-23T04:50:11;94284.84;;;20.58;52.36
49393;BME280;35268;42.642;23.308;2022-07-23T04:52:37;94292.31;;;20.64;51.69
49393;BME280;35268;42.642;23.308;2022-07-23T04:55:02;94286.63;;;20.73;52.64
49393;BME280;35268;42.642;23.308;2022-07-23T04:57:28;94295.22;;;20.79;51.39
49393;BME280;35268;42.642;23.308;2022-07-23T04:59:53;94294.16;;;20.87;51.35
49393;BME280;35268;42.642;23.308;2022-07-23T05:02:19;94286.75;;;20.84;50.38
49393;BME280;35268;42.642;23.308;2022-07-23T05:04:44;94294.56;;;20.89;50.26
49393;BME280;35268;42.642;23.308;2022-07-23T05:07:10;94300.47;;;20.98;50.26
49393;BME280;35268;42.642;23.308;2022-07-23T05:09:35;94301.75;;;21.04;50.06
49393;BME280;35268;42.642;23.308;2022-07-23T05:12:01;94291.34;;;21.10;50.06
49393;BME280;35268;42.642;23.308;2022-07-23T05:14:26;94287.59;;;21.22;49.90
49393;BME280;35268;42.642;23.308;2022-07-23T05:16:53;94295.81;;;21.29;50.42
49393;BME280;35268;42.642;23.308;2022-07-23T05:19:18;94300.59;;;21.39;49.29
49393;BME280;35268;42.642;23.308;2022-07-23T05:21:44;94303.38;;;21.47;49.53
49393;BME280;35268;42.642;23.308;2022-07-23T05:24:09;94300.34;;;21.52;49.75
49393;BME280;35268;42.642;23.308;2022-07-23T05:26:35;94299.63;;;21.58;50.29
49393;BME280;35268;42.642;23.308;2022-07-23T05:29:00;94300.50;;;21.66;49.31
49393;BME280;35268;42.642;23.308;2022-07-23T05:31:26;94304.38;;;21.69;49.32
49393;BME280;35268;42.642;23.308;2022-07-23T05:33:51;94302.13;;;21.74;49.40
49393;BME280;35268;42.642;23.308;2022-07-23T05:36:17;94306.81;;;21.81;48.93
49393;BME280;35268;42.642;23.308;2022-07-23T05:38:42;94298.78;;;21.92;49.25
49393;BME280;35268;42.642;23.308;2022-07-23T05:41:07;94298.09;;;22.02;47.97
49393;BME280;35268;42.642;23.308;2022-07-23T05:43:33;94300.50;;;22.14;47.08
49393;BME280;35268;42.642;23.308;2022-07-23T05:45:59;94299.09;;;22.28;47.99
49393;BME280;35268;42.642;23.308;2022-07-23T05:48:24;94303.09;;;22.41;47.16
49393;BME280;35268;42.642;23.308;2022-07-23T05:50:50;94305.50;;;22.57;45.42
49393;BME280;35268;42.642;23.308;2022-07-23T05:53:15;94306.28;;;22.61;44.58
49393;BME280;35268;42.642;23.308;2022-07-23T05:55:40;94307.50;;;22.67;47.43
49393;BME280;35268;42.642;23.308;2022-07-23T05:58:06;94306.78;;;22.74;45.57
49393;BME280;35268;42.642;23.308;2022-07-23T06:00:31;94305.66;;;22.82;44.11
49393;BME280;35268;42.642;23.308;2022-07-23T06:02:57;94299.50;;;22.92;44.12
49393;BME280;35268;42.642;23.308;2022-07-23T06:05:23;94296.78;;;22.99;44.19
49393;BME280;35268;42.642;23.308;2022-07-23T06:07:48;94303.47;;;23.06;44.13
49393;BME280;35268;42.642;23.308;2022-07-23T06:10:14;94300.78;;;23.13;43.76
49393;BME280;35268;42.642;23.308;2022-07-23T06:12:40;94297.69;;;23.18;43.80
49393;BME280;35268;42.642;23.308;2022-07-23T06:15:06;94294.22;;;23.28;44.19
49393;BME280;35268;42.642;23.308;2022-07-23T06:17:32;94290.75;;;23.38;44.06
49393;BME280;35268;42.642;23.308;2022-07-23T06:19:58;94300.09;;;23.41;43.82
49393;BME280;35268;42.642;23.308;2022-07-23T06:22:23;94291.97;;;23.52;43.06
49393;BME280;35268;42.642;23.308;2022-07-23T06:24:50;94290.06;;;23.63;43.27
49393;BME280;35268;42.642;23.308;2022-07-23T06:27:17;94286.56;;;23.73;43.34
49393;BME280;35268;42.642;23.308;2022-07-23T06:29:42;94286.59;;;23.80;42.79
49393;BME280;35268;42.642;23.308;2022-07-23T06:32:08;94291.69;;;23.86;42.63
49393;BME280;35268;42.642;23.308;2022-07-23T06:34:33;94298.28;;;23.99;42.13
49393;BME280;35268;42.642;23.308;2022-07-23T06:36:59;94295.19;;;24.04;41.47
49393;BME280;35268;42.642;23.308;2022-07-23T06:39:25;94297.50;;;24.13;43.02
49393;BME280;35268;42.642;23.308;2022-07-23T06:41:51;94297.53;;;24.16;42.38
49393;BME280;35268;42.642;23.308;2022-07-23T06:44:17;94295.16;;;24.29;42.01
49393;BME280;35268;42.642;23.308;2022-07-23T06:46:42;94295.16;;;24.40;40.50
49393;BME280;35268;42.642;23.308;2022-07-23T06:49:08;94293.19;;;24.44;41.38
49393;BME280;35268;42.642;23.308;2022-07-23T06:51:34;94283.50;;;24.54;40.49
49393;BME280;35268;42.642;23.308;2022-07-23T06:54:00;94286.59;;;24.52;41.06
49393;BME280;35268;42.642;23.308;2022-07-23T06:56:25;94290.09;;;24.63;40.63
49393;BME280;35268;42.642;23.308;2022-07-23T06:58:51;94284.22;;;24.72;40.41
49393;BME280;35268;42.642;23.308;2022-07-23T07:01:16;94290.06;;;24.81;39.68
49393;BME280;35268;42.642;23.308;2022-07-23T07:03:42;94288.09;;;24.86;38.86
49393;BME280;35268;42.642;23.308;2022-07-23T07:06:07;94290.41;;;24.98;41.16
49393;BME280;35268;42.642;23.308;2022-07-23T07:08:33;94290.78;;;25.00;40.38
49393;BME280;35268;42.642;23.308;2022-07-23T07:10:59;94289.59;;;25.05;38.56
49393;BME280;35268;42.642;23.308;2022-07-23T07:13:24;94291.94;;;25.10;38.38
49393;BME280;35268;42.642;23.308;2022-07-23T07:15:49;94290.34;;;25.16;38.71
49393;BME280;35268;42.642;23.308;2022-07-23T07:18:15;94285.66;;;25.16;39.00
49393;BME280;35268;42.642;23.308;2022-07-23T07:20:40;94283.72;;;25.24;37.95
49393;BME280;35268;42.642;23.308;2022-07-23T07:23:06;94282.47;;;25.36;38.20
49393;BME280;35268;42.642;23.308;2022-07-23T07:25:31;94276.97;;;25.47;37.18
49393;BME280;35268;42.642;23.308;2022-07-23T07:27:57;94275.78;;;25.51;37.83
49393;BME280;35268;42.642;23.308;2022-07-23T07:30:22;94273.38;;;25.60;39.04
49393;BME280;35268;42.642;23.308;2022-07-23T07:32:48;94272.56;;;25.67;39.56
49393;BME280;35268;42.642;23.308;2022-07-23T07:35:13;94272.88;;;25.76;37.54
49393;BME280;35268;42.642;23.308;2022-07-23T07:37:39;94265.41;;;25.84;37.89
49393;BME280;35268;42.642;23.308;2022-07-23T07:40:04;94267.72;;;25.93;39.97
49393;BME280;35268;42.642;23.308;2022-07-23T07:42:30;94269.25;;;25.97;37.55
49393;BME280;35268;42.642;23.308;2022-07-23T07:44:57;94266.06;;;26.06;38.01
49393;BME280;35268;42.642;23.308;2022-07-23T07:47:22;94266.78;;;26.14;37.98
49393;BME280;35268;42.642;23.308;2022-07-23T07:49:48;94269.47;;;26.17;37.68
49393;BME280;35268;42.642;23.308;2022-07-23T07:52:13;94277.22;;;26.26;37.89
49393;BME280;35268;42.642;23.308;2022-07-23T07:54:39;94275.59;;;26.36;38.94
49393;BME280;35268;42.642;23.308;2022-07-23T07:57:04;94266.16;;;26.40;36.82
49393;BME280;35268;42.642;23.308;2022-07-23T07:59:30;94262.19;;;26.49;38.18
49393;BME280;35268;42.642;23.308;2022-07-23T08:01:56;94268.38;;;26.56;37.44
49393;BME280;35268;42.642;23.308;2022-07-23T08:04:21;94259.78;;;26.58;36.99
49393;BME280;35268;42.642;23.308;2022-07-23T08:06:46;94265.09;;;26.72;36.40
49393;BME280;35268;42.642;23.308;2022-07-23T08:09:12;94265.09;;;26.72;36.60
49393;BME280;35268;42.642;23.308;2022-07-23T08:11:37;94260.69;;;26.82;36.72
49393;BME280;35268;42.642;23.308;2022-07-23T08:14:03;94259.34;;;26.97;36.36
49393;BME280;35268;42.642;23.308;2022-07-23T08:16:28;94264.66;;;27.12;35.62
49393;BME280;35268;42.642;23.308;2022-07-23T08:18:54;94256.03;;;27.13;35.96
49393;BME280;35268;42.642;23.308;2022-07-23T08:21:19;94259.03;;;27.26;35.50
49393;BME280;35268;42.642;23.308;2022-07-23T08:23:44;94259.28;;;27.35;35.76
49393;BME280;35268;42.642;23.308;2022-07-23T08:26:10;94262.34;;;27.41;35.18
49393;BME280;35268;42.642;23.308;2022-07-23T08:28:35;94262.19;;;27.52;35.85
49393;BME280;35268;42.642;23.308;2022-07-23T08:31:01;94259.66;;;27.68;35.96
49393;BME280;35268;42.642;23.308;2022-07-23T08:33:27;94252.53;;;27.74;36.82
49393;BME280;35268;42.642;23.308;2022-07-23T08:35:52;94255.84;;;27.86;36.18
49393;BME280;35268;42.642;23.308;2022-07-23T08:38:20;94258.03;;;27.98;36.00
49393;BME280;35268;42.642;23.308;2022-07-23T08:40:48;94261.84;;;28.04;35.45
49393;BME280;35268;42.642;23.308;2022-07-23T08:43:22;94250.91;;;28.04;34.86
49393;BME280;35268;42.642;23.308;2022-07-23T08:45:50;94257.47;;;28.10;34.90
49393;BME280;35268;42.642;23.308;2022-07-23T08:48:21;94255.28;;;28.25;34.25
49393;BME280;35268;42.642;23.308;2022-07-23T08:50:53;94248.03;;;28.35;33.97
49393;BME280;35268;42.642;23.308;2022-07-23T08:53:23;94251.03;;;28.44;34.37
49393;BME280;35268;42.642;23.308;2022-07-23T08:55:50;94242.31;;;28.49;34.25
49393;BME280;35268;42.642;23.308;2022-07-23T08:58:17;94249.94;;;28.61;34.56
49393;BME280;35268;42.642;23.308;2022-07-23T09:00:43;94241.53;;;28.72;34.07
49393;BME280;35268;42.642;23.308;2022-07-23T09:03:21;94242.38;;;28.89;34.12
49393;BME280;35268;42.642;23.308;2022-07-23T09:05:49;94246.06;;;29.03;33.96
49393;BME280;35268;42.642;23.308;2022-07-23T09:08:17;94244.31;;;29.12;32.67
49393;BME280;35268;42.642;23.308;2022-07-23T09:10:51;94243.06;;;29.17;33.28
49393;BME280;35268;42.642;23.308;2022-07-23T09:13:25;94242.31;;;29.33;33.33
49393;BME280;35268;42.642;23.308;2022-07-23T09:15:52;94241.66;;;29.45;33.04
49393;BME280;35268;42.642;23.308;2022-07-23T09:18:18;94238.00;;;29.52;31.70
49393;BME280;35268;42.642;23.308;2022-07-23T09:20:44;94244.00;;;29.63;32.87
49393;BME280;35268;42.642;23.308;2022-07-23T09:23:10;94239.84;;;29.75;30.52
49393;BME280;35268;42.642;23.308;2022-07-23T09:25:35;94244.75;;;29.84;30.50
49393;BME280;35268;42.642;23.308;2022-07-23T09:28:02;94240.88;;;29.81;30.06
49393;BME280;35268;42.642;23.308;2022-07-23T09:30:31;94239.94;;;29.88;30.51
49393;BME280;35268;42.642;23.308;2022-07-23T09:33:10;94238.22;;;29.94;30.70
49393;BME280;35268;42.642;23.308;2022-07-23T09:35:50;94233.69;;;30.04;28.54
49393;BME280;35268;42.642;23.308;2022-07-23T09:38:17;94232.22;;;30.15;28.47
49393;BME280;35268;42.642;23.308;2022-07-23T09:40:44;94229.41;;;30.19;30.46
49393;BME280;35268;42.642;23.308;2022-07-23T09:43:10;94223.38;;;30.24;26.82
49393;BME280;35268;42.642;23.308;2022-07-23T09:45:35;94220.41;;;30.35;23.74
49393;BME280;35268;42.642;23.308;2022-07-23T09:48:15;94223.28;;;30.44;25.34
49393;BME280;35268;42.642;23.308;2022-07-23T09:50:42;94219.41;;;30.58;23.65
49393;BME280;35268;42.642;23.308;2022-07-23T09:53:08;94222.53;;;30.73;23.44
49393;BME280;35268;42.642;23.308;2022-07-23T09:55:35;94215.72;;;30.77;23.35
49393;BME280;35268;42.642;23.308;2022-07-23T09:58:03;94207.38;;;30.81;23.63
49393;BME280;35268;42.642;23.308;2022-07-23T10:00:30;94213.47;;;30.89;23.69
49393;BME280;35268;42.642;23.308;2022-07-23T10:02:57;94214.81;;;30.97;22.89
49393;BME280;35268;42.642;23.308;2022-07-23T10:05:24;94216.59;;;31.04;22.80
49393;BME280;35268;42.642;23.308;2022-07-23T10:07:50;94208.16;;;31.11;22.08
49393;BME280;35268;42.642;23.308;2022-07-23T10:10:17;94210.56;;;31.22;22.36
49393;BME280;35268;42.642;23.308;2022-07-23T10:12:46;94202.31;;;31.34;21.83
49393;BME280;35268;42.642;23.308;2022-07-23T10:15:12;94198.50;;;31.45;21.22
49393;BME280;35268;42.642;23.308;2022-07-23T10:17:37;94197.44;;;31.55;22.92
49393;BME280;35268;42.642;23.308;2022-07-23T10:20:04;94203.59;;;31.59;22.02
49393;BME280;35268;42.642;23.308;2022-07-23T10:22:35;94196.00;;;31.63;23.37
49393;BME280;35268;42.642;23.308;2022-07-23T10:25:15;94194.00;;;31.64;21.54
49393;BME280;35268;42.642;23.308;2022-07-23T10:30:36;94194.00;;;31.64;23.35
49393;BME280;35268;42.642;23.308;2022-07-23T10:36:11;94192.09;;;31.99;19.70
49393;BME280;35268;42.642;23.308;2022-07-23T10:41:36;94183.31;;;32.04;20.91
49393;BME280;35268;42.642;23.308;2022-07-23T10:44:13;94176.88;;;32.07;20.21
49393;BME280;35268;42.642;23.308;2022-07-23T10:46:58;94176.66;;;32.14;20.37
49393;BME280;35268;42.642;23.308;2022-07-23T10:49:36;94169.13;;;32.28;19.99
49393;BME280;35268;42.642;23.308;2022-07-23T10:54:46;94165.09;;;32.42;17.53
49393;BME280;35268;42.642;23.308;2022-07-23T10:57:13;94161.00;;;32.46;18.73
49393;BME280;35268;42.642;23.308;2022-07-23T11:02:29;94153.09;;;32.70;17.92
49393;BME280;35268;42.642;23.308;2022-07-23T11:05:06;94152.44;;;32.66;17.94
49393;BME280;35268;42.642;23.308;2022-07-23T11:07:32;94152.69;;;32.81;19.29
49393;BME280;35268;42.642;23.308;2022-07-23T11:09:58;94146.97;;;32.97;19.67
49393;BME280;35268;42.642;23.308;2022-07-23T11:15:09;94133.34;;;33.25;18.43
49393;BME280;35268;42.642;23.308;2022-07-23T11:17:58;94133.97;;;33.29;19.68
49393;BME280;35268;42.642;23.308;2022-07-23T11:20:27;94136.72;;;33.29;19.25
49393;BME280;35268;42.642;23.308;2022-07-23T11:22:58;94130.78;;;33.40;18.60
49393;BME280;35268;42.642;23.308;2022-07-23T11:28:07;94125.44;;;33.46;20.18
49393;BME280;35268;42.642;23.308;2022-07-23T11:30:39;94118.09;;;33.52;17.51
49393;BME280;35268;42.642;23.308;2022-07-23T11:35:35;94119.69;;;33.62;18.74
49393;BME280;35268;42.642;23.308;2022-07-23T11:38:27;94121.28;;;33.82;20.29
49393;BME280;35268;42.642;23.308;2022-07-23T11:40:55;94112.66;;;33.89;16.33
49393;BME280;35268;42.642;23.308;2022-07-23T11:43:24;94118.81;;;33.93;14.86
49393;BME280;35268;42.642;23.308;2022-07-23T11:45:52;94114.69;;;33.97;13.66
49393;BME280;35268;42.642;23.308;2022-07-23T11:48:19;94111.75;;;34.01;13.71
49393;BME280;35268;42.642;23.308;2022-07-23T11:50:45;94116.53;;;34.01;14.32
49393;BME280;35268;42.642;23.308;2022-07-23T11:53:11;94106.72;;;34.09;13.26
49393;BME280;35268;42.642;23.308;2022-07-23T11:55:37;94105.63;;;34.06;13.20
49393;BME280;35268;42.642;23.308;2022-07-23T11:58:02;94105.94;;;34.08;14.19
49393;BME280;35268;42.642;23.308;2022-07-23T12:00:30;94104.59;;;34.22;13.76
49393;BME280;35268;42.642;23.308;2022-07-23T12:03:01;94100.91;;;34.34;13.28
49393;BME280;35268;42.642;23.308;2022-07-23T12:07:55;94095.22;;;34.47;12.97
49393;BME280;35268;42.642;23.308;2022-07-23T12:10:27;94101.97;;;34.55;14.13
49393;BME280;35268;42.642;23.308;2022-07-23T12:12:54;94097.66;;;34.64;13.03
49393;BME280;35268;42.642;23.308;2022-07-23T12:15:43;94084.13;;;34.75;13.14
49393;BME280;35268;42.642;23.308;2022-07-23T12:18:10;94091.94;;;34.86;13.60
49393;BME280;35268;42.642;23.308;2022-07-23T12:20:40;94090.06;;;35.01;13.88
49393;BME280;35268;42.642;23.308;2022-07-23T12:23:07;94096.03;;;35.18;14.90
49393;BME280;35268;42.642;23.308;2022-07-23T12:25:36;94085.69;;;35.28;13.26
49393;BME280;35268;42.642;23.308;2022-07-23T12:28:10;94078.75;;;35.32;12.66
49393;BME280;35268;42.642;23.308;2022-07-23T12:30:43;94081.16;;;35.40;11.90
49393;BME280;35268;42.642;23.308;2022-07-23T12:33:11;94079.94;;;35.41;12.17
49393;BME280;35268;42.642;23.308;2022-07-23T12:35:41;94075.16;;;35.41;11.48
49393;BME280;35268;42.642;23.308;2022-07-23T12:38:09;94073.44;;;35.44;12.39
49393;BME280;35268;42.642;23.308;2022-07-23T12:40:49;94066.97;;;35.47;11.07
49393;BME280;35268;42.642;23.308;2022-07-23T12:45:56;94065.69;;;36.05;12.91
49393;BME280;35268;42.642;23.308;2022-07-23T12:48:28;94069.28;;;36.21;10.28
49393;BME280;35268;42.642;23.308;2022-07-23T12:51:02;94061.25;;;36.23;10.17
49393;BME280;35268;42.642;23.308;2022-07-23T12:53:36;94064.41;;;36.15;10.97
49393;BME280;35268;42.642;23.308;2022-07-23T12:56:15;94064.03;;;36.23;10.51
49393;BME280;35268;42.642;23.308;2022-07-23T12:58:55;94058.13;;;36.45;11.54
49393;BME280;35268;42.642;23.308;2022-07-23T13:01:23;94059.69;;;36.46;10.21
49393;BME280;35268;42.642;23.308;2022-07-23T13:06:28;94046.50;;;36.85;9.45
49393;BME280;35268;42.642;23.308;2022-07-23T13:08:54;94050.13;;;37.21;12.29
49393;BME280;35268;42.642;23.308;2022-07-23T13:11:20;94054.41;;;37.72;11.16
49393;BME280;35268;42.642;23.308;2022-07-23T13:13:46;94047.38;;;38.18;9.51
49393;BME280;35268;42.642;23.308;2022-07-23T13:16:11;94047.97;;;38.48;8.70
49393;BME280;35268;42.642;23.308;2022-07-23T13:18:36;94045.22;;;38.75;8.61